sensor_id;sensor_type;location;lat;lon;timestamp;temperature;humidity
49321;DHT22;35817;44.498;0.166;2022-07-29T00:02:15;19.90;90.00
49321;DHT22;35817;44.498;0.166;2022-07-29T00:04:40;19.90;90.00
49321;DHT22;35817;44.498;0.166;2022-07-29T00:07:06;19.90;90.10
49321;DHT22;35817;44.498;0.166;2022-07-29T00:09:32;19.90;90.10
49321;DHT22;35817;44.498;0.166;2022-07-29T00:12:00;19.80;90.10
49321;DHT22;35817;44.498;0.166;2022-07-29T00:14:27;19.80;90.10
49321;DHT22;35817;44.498;0.166;2022-07-29T00:16:53;19.80;90.20
49321;DHT22;35817;44.498;0.166;2022-07-29T00:19:18;19.80;90.20
49321;DHT22;35817;44.498;0.166;2022-07-29T00:21:44;19.80;90.40
49321;DHT22;35817;44.498;0.166;2022-07-29T00:24:10;19.80;90.40
49321;DHT22;35817;44.498;0.166;2022-07-29T00:26:35;19.80;90.50
49321;DHT22;35817;44.498;0.166;2022-07-29T00:29:03;19.80;90.70
49321;DHT22;35817;44.498;0.166;2022-07-29T00:31:42;19.70;90.70
49321;DHT22;35817;44.498;0.166;2022-07-29T00:34:07;19.80;90.90
49321;DHT22;35817;44.498;0.166;2022-07-29T00:36:53;19.70;90.90
49321;DHT22;35817;44.498;0.166;2022-07-29T00:39:21;19.80;91.00
49321;DHT22;35817;44.498;0.166;2022-07-29T00:41:47;19.70;91.10
49321;DHT22;35817;44.498;0.166;2022-07-29T00:47:51;19.60;91.40
49321;DHT22;35817;44.498;0.166;2022-07-29T00:56:45;19.50;92.00
49321;DHT22;35817;44.498;0.166;2022-07-29T01:02:33;19.50;92.30
49321;DHT22;35817;44.498;0.166;2022-07-29T01:05:07;19.50;92.30
49321;DHT22;35817;44.498;0.166;2022-07-29T01:07:37;19.40;92.40
49321;DHT22;35817;44.498;0.166;2022-07-29T01:10:13;19.40;92.60
49321;DHT22;35817;44.498;0.166;2022-07-29T01:12:39;19.40;92.70
49321;DHT22;35817;44.498;0.166;2022-07-29T01:15:06;19.50;92.70
49321;DHT22;35817;44.498;0.166;2022-07-29T01:17:48;19.50;92.70
49321;DHT22;35817;44.498;0.166;2022-07-29T01:32:03;19.50;92.70
49321;DHT22;35817;44.498;0.166;2022-07-29T01:39:57;19.30;93.50
49321;DHT22;35817;44.498;0.166;2022-07-29T01:42:43;19.20;93.60
49321;DHT22;35817;44.498;0.166;2022-07-29T01:45:17;19.10;93.70
49321;DHT22;35817;44.498;0.166;2022-07-29T01:47:54;19.10;93.90
49321;DHT22;35817;44.498;0.166;2022-07-29T01:50:26;19.00;94.10
49321;DHT22;35817;44.498;0.166;2022-07-29T01:52:58;19.00;94.10
49321;DHT22;35817;44.498;0.166;2022-07-29T01:55:31;19.00;94.30
49321;DHT22;35817;44.498;0.166;2022-07-29T01:57:58;19.00;94.40
49321;DHT22;35817;44.498;0.166;2022-07-29T02:00:26;19.10;94.60
49321;DHT22;35817;44.498;0.166;2022-07-29T02:02:54;19.00;94.80
49321;DHT22;35817;44.498;0.166;2022-07-29T02:05:21;19.00;94.90
49321;DHT22;35817;44.498;0.166;2022-07-29T02:07:49;19.00;94.90
49321;DHT22;35817;44.498;0.166;2022-07-29T02:10:19;18.90;95.00
49321;DHT22;35817;44.498;0.166;2022-07-29T02:12:48;18.90;95.30
49321;DHT22;35817;44.498;0.166;2022-07-29T02:15:16;18.80;95.70
49321;DHT22;35817;44.498;0.166;2022-07-29T02:17:47;18.80;95.90
49321;DHT22;35817;44.498;0.166;2022-07-29T02:20:48;18.70;96.10
49321;DHT22;35817;44.498;0.166;2022-07-29T02:23:25;18.80;96.20
49321;DHT22;35817;44.498;0.166;2022-07-29T02:26:31;18.80;96.40
49321;DHT22;35817;44.498;0.166;2022-07-29T02:28:59;18.80;96.30
49321;DHT22;35817;44.498;0.166;2022-07-29T02:34:35;18.70;96.40
49321;DHT22;35817;44.498;0.166;2022-07-29T02:37:44;18.70;96.40
49321;DHT22;35817;44.498;0.166;2022-07-29T02:41:13;18.70;96.60
49321;DHT22;35817;44.498;0.166;2022-07-29T02:43:38;18.70;96.70
49321;DHT22;35817;44.498;0.166;2022-07-29T02:46:08;18.70;96.80
49321;DHT22;35817;44.498;0.166;2022-07-29T02:48:40;18.70;96.90
49321;DHT22;35817;44.498;0.166;2022-07-29T02:51:14;18.60;97.20
49321;DHT22;35817;44.498;0.166;2022-07-29T02:53:43;18.60;97.30
49321;DHT22;35817;44.498;0.166;2022-07-29T02:56:13;18.50;97.50
49321;DHT22;35817;44.498;0.166;2022-07-29T02:58:49;18.50;97.60
49321;DHT22;35817;44.498;0.166;2022-07-29T03:01:23;18.60;97.80
49321;DHT22;35817;44.498;0.166;2022-07-29T03:03:50;18.60;97.70
49321;DHT22;35817;44.498;0.166;2022-07-29T03:06:19;18.60;97.70
49321;DHT22;35817;44.498;0.166;2022-07-29T03:08:46;18.60;97.80
49321;DHT22;35817;44.498;0.166;2022-07-29T03:11:12;18.60;97.80
49321;DHT22;35817;44.498;0.166;2022-07-29T03:13:38;18.60;97.90
49321;DHT22;35817;44.498;0.166;2022-07-29T03:16:04;18.60;97.90
49321;DHT22;35817;44.498;0.166;2022-07-29T03:18:30;18.50;98.00
49321;DHT22;35817;44.498;0.166;2022-07-29T03:20:56;18.50;98.10
49321;DHT22;35817;44.498;0.166;2022-07-29T03:23:23;18.40;98.20
49321;DHT22;35817;44.498;0.166;2022-07-29T03:25:49;18.30;98.30
49321;DHT22;35817;44.498;0.166;2022-07-29T03:40:43;18.20;99.00
49321;DHT22;35817;44.498;0.166;2022-07-29T03:43:30;18.10;99.00
49321;DHT22;35817;44.498;0.166;2022-07-29T03:49:05;18.10;99.50
49321;DHT22;35817;44.498;0.166;2022-07-29T03:51:36;18.10;99.80
49321;DHT22;35817;44.498;0.166;2022-07-29T03:54:04;18.10;99.90
49321;DHT22;35817;44.498;0.166;2022-07-29T04:03:22;18.00;99.90
49321;DHT22;35817;44.498;0.166;2022-07-29T04:06:02;17.90;99.90
49321;DHT22;35817;44.498;0.166;2022-07-29T04:08:46;17.80;99.90
49321;DHT22;35817;44.498;0.166;2022-07-29T04:11:28;17.80;99.90
49321;DHT22;35817;44.498;0.166;2022-07-29T04:14:02;17.80;99.90
49321;DHT22;35817;44.498;0.166;2022-07-29T04:22:47;17.70;99.90
49321;DHT22;35817;44.498;0.166;2022-07-29T04:25:38;17.70;99.90
49321;DHT22;35817;44.498;0.166;2022-07-29T04:31:17;17.70;99.90
49321;DHT22;35817;44.498;0.166;2022-07-29T04:43:08;18.10;99.90
49321;DHT22;35817;44.498;0.166;2022-07-29T04:45:43;18.20;99.90
49321;DHT22;35817;44.498;0.166;2022-07-29T04:54:20;18.10;99.90
49321;DHT22;35817;44.498;0.166;2022-07-29T04:56:46;18.10;99.90
49321;DHT22;35817;44.498;0.166;2022-07-29T04:59:12;18.10;99.90
49321;DHT22;35817;44.498;0.166;2022-07-29T05:01:37;18.10;99.90
49321;DHT22;35817;44.498;0.166;2022-07-29T05:04:03;18.10;99.90
49321;DHT22;35817;44.498;0.166;2022-07-29T05:06:28;18.10;99.90
49321;DHT22;35817;44.498;0.166;2022-07-29T05:08:54;18.20;99.90
49321;DHT22;35817;44.498;0.166;2022-07-29T05:11:19;18.20;99.90
49321;DHT22;35817;44.498;0.166;2022-07-29T05:13:45;18.30;99.90
49321;DHT22;35817;44.498;0.166;2022-07-29T05:16:11;18.30;99.90
49321;DHT22;35817;44.498;0.166;2022-07-29T05:18:36;18.30;99.90
49321;DHT22;35817;44.498;0.166;2022-07-29T05:21:02;18.30;99.90
49321;DHT22;35817;44.498;0.166;2022-07-29T05:23:28;18.30;99.90
49321;DHT22;35817;44.498;0.166;2022-07-29T05:25:53;18.30;99.90
49321;DHT22;35817;44.498;0.166;2022-07-29T05:28:19;18.30;99.90
49321;DHT22;35817;44.498;0.166;2022-07-29T05:30:44;18.30;99.90
49321;DHT22;35817;44.498;0.166;2022-07-29T05:33:10;18.30;99.90
49321;DHT22;35817;44.498;0.166;2022-07-29T05:35:36;18.40;99.90
49321;DHT22;35817;44.498;0.166;2022-07-29T05:38:02;18.40;99.90
49321;DHT22;35817;44.498;0.166;2022-07-29T05:40:28;18.50;99.90
49321;DHT22;35817;44.498;0.166;2022-07-29T05:42:53;18.50;99.90
49321;DHT22;35817;44.498;0.166;2022-07-29T05:45:20;18.50;99.90
49321;DHT22;35817;44.498;0.166;2022-07-29T05:47:45;18.50;99.90
49321;DHT22;35817;44.498;0.166;2022-07-29T05:50:11;18.50;99.90
49321;DHT22;35817;44.498;0.166;2022-07-29T05:52:36;18.50;99.90
49321;DHT22;35817;44.498;0.166;2022-07-29T05:55:02;18.50;99.90
49321;DHT22;35817;44.498;0.166;2022-07-29T05:57:39;18.50;99.90
49321;DHT22;35817;44.498;0.166;2022-07-29T06:00:05;18.60;99.90
49321;DHT22;35817;44.498;0.166;2022-07-29T06:02:40;18.70;99.90
49321;DHT22;35817;44.498;0.166;2022-07-29T06:05:06;18.70;99.90
49321;DHT22;35817;44.498;0.166;2022-07-29T06:10:36;18.90;99.90
49321;DHT22;35817;44.498;0.166;2022-07-29T06:19:13;19.00;99.90
49321;DHT22;35817;44.498;0.166;2022-07-29T06:21:45;19.10;99.90
49321;DHT22;35817;44.498;0.166;2022-07-29T06:24:11;19.20;99.90
49321;DHT22;35817;44.498;0.166;2022-07-29T06:35:53;19.50;99.90
49321;DHT22;35817;44.498;0.166;2022-07-29T06:44:33;19.50;99.90
49321;DHT22;35817;44.498;0.166;2022-07-29T06:56:30;19.80;99.40
49321;DHT22;35817;44.498;0.166;2022-07-29T06:59:29;19.80;99.20
49321;DHT22;35817;44.498;0.166;2022-07-29T07:02:06;19.80;99.20
49321;DHT22;35817;44.498;0.166;2022-07-29T07:08:08;19.80;99.50
49321;DHT22;35817;44.498;0.166;2022-07-29T07:10:43;19.80;99.60
49321;DHT22;35817;44.498;0.166;2022-07-29T07:13:08;19.90;99.70
49321;DHT22;35817;44.498;0.166;2022-07-29T07:15:37;20.00;99.50
49321;DHT22;35817;44.498;0.166;2022-07-29T07:18:07;20.10;99.20
49321;DHT22;35817;44.498;0.166;2022-07-29T07:21:31;20.00;99.10
49321;DHT22;35817;44.498;0.166;2022-07-29T07:23:57;20.00;99.30
49321;DHT22;35817;44.498;0.166;2022-07-29T07:26:51;20.00;99.40
49321;DHT22;35817;44.498;0.166;2022-07-29T07:29:27;20.00;99.30
49321;DHT22;35817;44.498;0.166;2022-07-29T07:32:20;20.00;99.30
49321;DHT22;35817;44.498;0.166;2022-07-29T07:34:54;20.20;99.20
49321;DHT22;35817;44.498;0.166;2022-07-29T07:37:30;20.30;99.00
49321;DHT22;35817;44.498;0.166;2022-07-29T07:39:55;20.40;98.70
49321;DHT22;35817;44.498;0.166;2022-07-29T07:42:40;20.30;98.60
49321;DHT22;35817;44.498;0.166;2022-07-29T07:51:52;20.20;99.20
49321;DHT22;35817;44.498;0.166;2022-07-29T07:57:22;20.00;99.80
49321;DHT22;35817;44.498;0.166;2022-07-29T08:05:43;20.20;99.90
49321;DHT22;35817;44.498;0.166;2022-07-29T08:08:50;20.10;99.90
49321;DHT22;35817;44.498;0.166;2022-07-29T08:27:07;20.20;99.90
49321;DHT22;35817;44.498;0.166;2022-07-29T08:29:33;20.40;99.90
49321;DHT22;35817;44.498;0.166;2022-07-29T08:31:59;20.40;99.90
49321;DHT22;35817;44.498;0.166;2022-07-29T08:34:24;20.50;99.90
49321;DHT22;35817;44.498;0.166;2022-07-29T08:36:50;20.40;99.90
49321;DHT22;35817;44.498;0.166;2022-07-29T08:39:17;20.40;99.90
49321;DHT22;35817;44.498;0.166;2022-07-29T08:41:42;20.30;99.90
49321;DHT22;35817;44.498;0.166;2022-07-29T08:44:08;20.30;99.90
49321;DHT22;35817;44.498;0.166;2022-07-29T08:46:37;20.40;99.90
49321;DHT22;35817;44.498;0.166;2022-07-29T08:49:05;20.40;99.90
49321;DHT22;35817;44.498;0.166;2022-07-29T08:52:15;20.40;99.90
49321;DHT22;35817;44.498;0.166;2022-07-29T08:54:35;20.40;99.90
49321;DHT22;35817;44.498;0.166;2022-07-29T10:11:02;23.10;91.60
49321;DHT22;35817;44.498;0.166;2022-07-29T10:13:33;23.40;91.30
49321;DHT22;35817;44.498;0.166;2022-07-29T10:16:01;23.70;89.50
49321;DHT22;35817;44.498;0.166;2022-07-29T10:18:27;24.00;86.20
49321;DHT22;35817;44.498;0.166;2022-07-29T10:24:39;24.40;83.20
49321;DHT22;35817;44.498;0.166;2022-07-29T10:27:00;24.80;82.30
49321;DHT22;35817;44.498;0.166;2022-07-29T10:29:49;24.90;79.50
49321;DHT22;35817;44.498;0.166;2022-07-29T10:43:43;25.10;76.50
49321;DHT22;35817;44.498;0.166;2022-07-29T10:46:12;25.40;75.60
49321;DHT22;35817;44.498;0.166;2022-07-29T11:00:35;27.10;71.70
49321;DHT22;35817;44.498;0.166;2022-07-29T11:03:06;27.40;70.20
49321;DHT22;35817;44.498;0.166;2022-07-29T11:09:14;28.30;67.20
49321;DHT22;35817;44.498;0.166;2022-07-29T11:17:20;28.90;63.70
49321;DHT22;35817;44.498;0.166;2022-07-29T11:19:48;29.10;61.90
49321;DHT22;35817;44.498;0.166;2022-07-29T11:22:33;29.30;58.50
49321;DHT22;35817;44.498;0.166;2022-07-29T11:25:14;30.20;57.60
49321;DHT22;35817;44.498;0.166;2022-07-29T11:27:40;30.40;55.10
49321;DHT22;35817;44.498;0.166;2022-07-29T11:30:06;30.80;55.80
49321;DHT22;35817;44.498;0.166;2022-07-29T11:32:36;31.60;55.20
49321;DHT22;35817;44.498;0.166;2022-07-29T11:35:19;32.70;52.60
49321;DHT22;35817;44.498;0.166;2022-07-29T11:40:39;34.50;48.40
49321;DHT22;35817;44.498;0.166;2022-07-29T11:43:04;35.40;47.30
49321;DHT22;35817;44.498;0.166;2022-07-29T11:45:44;36.30;46.90
49321;DHT22;35817;44.498;0.166;2022-07-29T11:48:15;37.20;44.70
49321;DHT22;35817;44.498;0.166;2022-07-29T11:50:42;38.00;43.80
49321;DHT22;35817;44.498;0.166;2022-07-29T11:53:11;38.30;43.30
49321;DHT22;35817;44.498;0.166;2022-07-29T11:55:38;38.40;42.40
49321;DHT22;35817;44.498;0.166;2022-07-29T11:58:04;38.00;41.30
49321;DHT22;35817;44.498;0.166;2022-07-29T12:00:37;37.30;42.80
49321;DHT22;35817;44.498;0.166;2022-07-29T12:03:10;37.00;41.70
49321;DHT22;35817;44.498;0.166;2022-07-29T12:05:43;36.40;42.30
49321;DHT22;35817;44.498;0.166;2022-07-29T12:10:36;36.80;43.10
49321;DHT22;35817;44.498;0.166;2022-07-29T12:13:01;36.80;43.90
49321;DHT22;35817;44.498;0.166;2022-07-29T12:15:27;37.00;43.30
49321;DHT22;35817;44.498;0.166;2022-07-29T12:17:53;37.50;42.80
49321;DHT22;35817;44.498;0.166;2022-07-29T12:20:22;38.10;41.40
49321;DHT22;35817;44.498;0.166;2022-07-29T12:22:48;37.40;43.00
49321;DHT22;35817;44.498;0.166;2022-07-29T12:25:14;36.40;43.40
49321;DHT22;35817;44.498;0.166;2022-07-29T12:27:42;35.30;44.70
49321;DHT22;35817;44.498;0.166;2022-07-29T12:30:13;34.50;45.90
49321;DHT22;35817;44.498;0.166;2022-07-29T12:32:44;34.20;46.40
49321;DHT22;35817;44.498;0.166;2022-07-29T12:35:16;34.90;45.90
49321;DHT22;35817;44.498;0.166;2022-07-29T12:37:59;36.00;44.90
49321;DHT22;35817;44.498;0.166;2022-07-29T12:47:00;36.20;43.60
49321;DHT22;35817;44.498;0.166;2022-07-29T12:49:28;36.90;43.20
49321;DHT22;35817;44.498;0.166;2022-07-29T12:51:55;37.20;41.60
49321;DHT22;35817;44.498;0.166;2022-07-29T12:54:20;37.20;41.60
49321;DHT22;35817;44.498;0.166;2022-07-29T12:56:57;36.70;41.80
49321;DHT22;35817;44.498;0.166;2022-07-29T12:59:43;35.70;42.40
49321;DHT22;35817;44.498;0.166;2022-07-29T13:08:26;34.80;43.40
49321;DHT22;35817;44.498;0.166;2022-07-29T13:14:09;35.10;43.30
49321;DHT22;35817;44.498;0.166;2022-07-29T13:17:06;35.10;43.30
49321;DHT22;35817;44.498;0.166;2022-07-29T13:19:52;35.40;42.50
49321;DHT22;35817;44.498;0.166;2022-07-29T13:22:22;35.10;42.50
49321;DHT22;35817;44.498;0.166;2022-07-29T13:25:03;35.00;42.80
49321;DHT22;35817;44.498;0.166;2022-07-29T13:30:39;36.30;42.60
49321;DHT22;35817;44.498;0.166;2022-07-29T14:12:17;41.70;38.90
49321;DHT22;35817;44.498;0.166;2022-07-29T14:14:44;41.70;38.30
49321;DHT22;35817;44.498;0.166;2022-07-29T14:17:10;42.30;38.40
49321;DHT22;35817;44.498;0.166;2022-07-29T14:19:37;42.40;37.60
49321;DHT22;35817;44.498;0.166;2022-07-29T14:25:13;42.60;37.80
49321;DHT22;35817;44.498;0.166;2022-07-29T14:27:39;42.20;37.40
49321;DHT22;35817;44.498;0.166;2022-07-29T14:30:05;41.60;37.90
49321;DHT22;35817;44.498;0.166;2022-07-29T14:32:31;41.00;38.80
49321;DHT22;35817;44.498;0.166;2022-07-29T14:34:58;41.50;37.30
49321;DHT22;35817;44.498;0.166;2022-07-29T14:37:24;42.00;37.60
49321;DHT22;35817;44.498;0.166;2022-07-29T14:39:52;42.70;37.70
49321;DHT22;35817;44.498;0.166;2022-07-29T14:42:19;43.30;36.50
49321;DHT22;35817;44.498;0.166;2022-07-29T14:44:44;43.60;36.10
49321;DHT22;35817;44.498;0.166;2022-07-29T14:47:10;43.80;37.20
49321;DHT22;35817;44.498;0.166;2022-07-29T14:49:36;43.10;36.60
49321;DHT22;35817;44.498;0.166;2022-07-29T14:52:01;42.80;37.20
49321;DHT22;35817;44.498;0.166;2022-07-29T14:54:29;43.20;37.30
49321;DHT22;35817;44.498;0.166;2022-07-29T14:56:55;43.70;37.10
49321;DHT22;35817;44.498;0.166;2022-07-29T14:59:22;44.50;36.60
49321;DHT22;35817;44.498;0.166;2022-07-29T15:01:47;45.00;36.60
49321;DHT22;35817;44.498;0.166;2022-07-29T15:04:13;45.20;36.80
49321;DHT22;35817;44.498;0.166;2022-07-29T15:06:38;45.30;36.90
49321;DHT22;35817;44.498;0.166;2022-07-29T15:09:04;44.00;37.70
49321;DHT22;35817;44.498;0.166;2022-07-29T15:11:30;43.00;39.20
49321;DHT22;35817;44.498;0.166;2022-07-29T15:13:55;42.70;38.90
49321;DHT22;35817;44.498;0.166;2022-07-29T15:16:21;42.70;37.90
49321;DHT22;35817;44.498;0.166;2022-07-29T15:18:46;42.60;38.00
49321;DHT22;35817;44.498;0.166;2022-07-29T15:21:12;42.50;39.00
49321;DHT22;35817;44.498;0.166;2022-07-29T15:23:38;42.40;39.50
49321;DHT22;35817;44.498;0.166;2022-07-29T15:26:04;41.90;39.50
49321;DHT22;35817;44.498;0.166;2022-07-29T15:28:30;41.60;38.90
49321;DHT22;35817;44.498;0.166;2022-07-29T15:30:55;41.90;38.40
49321;DHT22;35817;44.498;0.166;2022-07-29T15:33:21;42.80;39.20
49321;DHT22;35817;44.498;0.166;2022-07-29T15:35:46;43.20;38.10
49321;DHT22;35817;44.498;0.166;2022-07-29T15:38:12;43.90;37.10
49321;DHT22;35817;44.498;0.166;2022-07-29T15:40:38;44.00;36.30
49321;DHT22;35817;44.498;0.166;2022-07-29T15:43:05;43.70;36.40
49321;DHT22;35817;44.498;0.166;2022-07-29T15:48:42;43.30;36.50
49321;DHT22;35817;44.498;0.166;2022-07-29T15:51:08;43.00;37.00
49321;DHT22;35817;44.498;0.166;2022-07-29T15:53:34;43.60;37.10
49321;DHT22;35817;44.498;0.166;2022-07-29T15:55:59;43.60;36.20
49321;DHT22;35817;44.498;0.166;2022-07-29T15:58:25;43.30;37.00
49321;DHT22;35817;44.498;0.166;2022-07-29T16:00:50;43.00;37.50
49321;DHT22;35817;44.498;0.166;2022-07-29T16:03:16;42.90;37.00
49321;DHT22;35817;44.498;0.166;2022-07-29T16:05:42;43.20;36.20
49321;DHT22;35817;44.498;0.166;2022-07-29T16:08:07;43.30;36.10
49321;DHT22;35817;44.498;0.166;2022-07-29T16:10:33;43.20;36.30
49321;DHT22;35817;44.498;0.166;2022-07-29T16:12:59;43.40;36.20
49321;DHT22;35817;44.498;0.166;2022-07-29T16:15:24;43.50;36.30
49321;DHT22;35817;44.498;0.166;2022-07-29T16:17:50;43.20;37.20
49321;DHT22;35817;44.498;0.166;2022-07-29T16:20:15;42.50;37.30
49321;DHT22;35817;44.498;0.166;2022-07-29T16:22:41;42.30;37.80
49321;DHT22;35817;44.498;0.166;2022-07-29T16:25:07;42.00;38.60
49321;DHT22;35817;44.498;0.166;2022-07-29T16:27:33;41.00;39.30
49321;DHT22;35817;44.498;0.166;2022-07-29T16:39:08;41.00;39.00
49321;DHT22;35817;44.498;0.166;2022-07-29T16:41:37;40.70;39.10
49321;DHT22;35817;44.498;0.166;2022-07-29T16:44:02;40.40;39.00
49321;DHT22;35817;44.498;0.166;2022-07-29T16:46:28;40.10;39.40
49321;DHT22;35817;44.498;0.166;2022-07-29T16:48:53;39.20;40.30
49321;DHT22;35817;44.498;0.166;2022-07-29T16:51:19;38.50;41.20
49321;DHT22;35817;44.498;0.166;2022-07-29T16:53:45;37.80;41.60
49321;DHT22;35817;44.498;0.166;2022-07-29T16:56:11;37.60;41.70
49321;DHT22;35817;44.498;0.166;2022-07-29T16:58:36;37.30;41.70
49321;DHT22;35817;44.498;0.166;2022-07-29T17:01:02;37.40;42.00
49321;DHT22;35817;44.498;0.166;2022-07-29T17:03:28;37.40;42.00
49321;DHT22;35817;44.498;0.166;2022-07-29T17:05:53;37.80;41.40
49321;DHT22;35817;44.498;0.166;2022-07-29T17:08:19;38.30;41.10
49321;DHT22;35817;44.498;0.166;2022-07-29T17:10:44;38.50;40.70
49321;DHT22;35817;44.498;0.166;2022-07-29T17:13:13;38.60;40.50
49321;DHT22;35817;44.498;0.166;2022-07-29T17:15:39;38.60;40.60
49321;DHT22;35817;44.498;0.166;2022-07-29T17:18:06;38.70;40.10
49321;DHT22;35817;44.498;0.166;2022-07-29T17:20:33;39.00;40.10
49321;DHT22;35817;44.498;0.166;2022-07-29T17:23:01;39.10;39.80
49321;DHT22;35817;44.498;0.166;2022-07-29T17:25:26;39.20;39.80
49321;DHT22;35817;44.498;0.166;2022-07-29T17:27:52;39.30;39.60
49321;DHT22;35817;44.498;0.166;2022-07-29T17:30:20;39.40;39.30
49321;DHT22;35817;44.498;0.166;2022-07-29T17:32:45;39.20;39.30
49321;DHT22;35817;44.498;0.166;2022-07-29T17:35:11;38.80;39.50
49321;DHT22;35817;44.498;0.166;2022-07-29T17:37:55;38.10;40.20
49321;DHT22;35817;44.498;0.166;2022-07-29T17:40:21;37.70;40.60
49321;DHT22;35817;44.498;0.166;2022-07-29T17:42:47;37.60;40.60
49321;DHT22;35817;44.498;0.166;2022-07-29T17:45:12;37.70;40.70
49321;DHT22;35817;44.498;0.166;2022-07-29T17:47:38;37.60;40.90
49321;DHT22;35817;44.498;0.166;2022-07-29T17:50:06;37.60;40.90
49321;DHT22;35817;44.498;0.166;2022-07-29T17:52:32;37.20;41.10
49321;DHT22;35817;44.498;0.166;2022-07-29T17:54:57;37.00;41.40
49321;DHT22;35817;44.498;0.166;2022-07-29T17:57:23;36.60;42.10
49321;DHT22;35817;44.498;0.166;2022-07-29T17:59:48;36.30;42.50
49321;DHT22;35817;44.498;0.166;2022-07-29T18:02:14;36.00;42.60
49321;DHT22;35817;44.498;0.166;2022-07-29T18:04:40;35.60;43.00
49321;DHT22;35817;44.498;0.166;2022-07-29T18:07:05;35.40;43.30
49321;DHT22;35817;44.498;0.166;2022-07-29T18:09:31;35.30;43.80
49321;DHT22;35817;44.498;0.166;2022-07-29T18:12:52;35.10;44.30
49321;DHT22;35817;44.498;0.166;2022-07-29T18:18:19;34.40;45.20
49321;DHT22;35817;44.498;0.166;2022-07-29T18:26:57;33.30;46.40
49321;DHT22;35817;44.498;0.166;2022-07-29T18:29:22;32.70;47.40
49321;DHT22;35817;44.498;0.166;2022-07-29T18:32:43;32.20;48.20
49321;DHT22;35817;44.498;0.166;2022-07-29T18:35:04;31.80;48.90
49321;DHT22;35817;44.498;0.166;2022-07-29T18:37:30;31.40;49.80
49321;DHT22;35817;44.498;0.166;2022-07-29T18:39:56;30.90;50.80
49321;DHT22;35817;44.498;0.166;2022-07-29T18:42:21;30.20;52.10
49321;DHT22;35817;44.498;0.166;2022-07-29T18:44:47;29.60;53.30
49321;DHT22;35817;44.498;0.166;2022-07-29T18:47:12;29.00;54.60
49321;DHT22;35817;44.498;0.166;2022-07-29T18:49:38;28.40;55.70
49321;DHT22;35817;44.498;0.166;2022-07-29T18:52:04;27.90;57.10
49321;DHT22;35817;44.498;0.166;2022-07-29T18:54:29;27.50;58.30
49321;DHT22;35817;44.498;0.166;2022-07-29T18:56:55;27.20;59.00
49321;DHT22;35817;44.498;0.166;2022-07-29T18:59:21;26.90;59.60
49321;DHT22;35817;44.498;0.166;2022-07-29T19:01:47;26.70;60.60
49321;DHT22;35817;44.498;0.166;2022-07-29T19:04:13;26.50;61.20
49321;DHT22;35817;44.498;0.166;2022-07-29T19:06:39;26.30;61.90
49321;DHT22;35817;44.498;0.166;2022-07-29T19:09:05;26.20;62.40
49321;DHT22;35817;44.498;0.166;2022-07-29T19:11:34;26.00;62.80
49321;DHT22;35817;44.498;0.166;2022-07-29T19:14:00;26.00;63.40
49321;DHT22;35817;44.498;0.166;2022-07-29T19:16:25;25.90;63.80
49321;DHT22;35817;44.498;0.166;2022-07-29T19:18:51;25.80;63.90
49321;DHT22;35817;44.498;0.166;2022-07-29T19:21:17;25.80;64.50
49321;DHT22;35817;44.498;0.166;2022-07-29T19:23:42;25.70;64.90
49321;DHT22;35817;44.498;0.166;2022-07-29T19:26:08;25.70;65.20
49321;DHT22;35817;44.498;0.166;2022-07-29T19:28:33;25.60;65.60
49321;DHT22;35817;44.498;0.166;2022-07-29T19:30:59;25.50;65.90
49321;DHT22;35817;44.498;0.166;2022-07-29T19:33:25;25.40;66.20
49321;DHT22;35817;44.498;0.166;2022-07-29T19:35:50;25.40;66.60
49321;DHT22;35817;44.498;0.166;2022-07-29T19:38:19;25.30;66.90
49321;DHT22;35817;44.498;0.166;2022-07-29T19:40:44;25.20;67.20
49321;DHT22;35817;44.498;0.166;2022-07-29T19:43:10;25.20;67.40
49321;DHT22;35817;44.498;0.166;2022-07-29T19:45:35;25.10;67.50
49321;DHT22;35817;44.498;0.166;2022-07-29T19:48:02;25.10;67.70
49321;DHT22;35817;44.498;0.166;2022-07-29T19:50:29;25.10;68.10
49321;DHT22;35817;44.498;0.166;2022-07-29T19:52:55;25.00;68.40
49321;DHT22;35817;44.498;0.166;2022-07-29T19:55:21;25.00;68.60
49321;DHT22;35817;44.498;0.166;2022-07-29T19:57:47;24.90;68.90
49321;DHT22;35817;44.498;0.166;2022-07-29T20:00:13;24.90;69.40
49321;DHT22;35817;44.498;0.166;2022-07-29T20:02:39;24.70;69.50
49321;DHT22;35817;44.498;0.166;2022-07-29T20:05:06;24.70;69.80
49321;DHT22;35817;44.498;0.166;2022-07-29T20:07:32;24.70;70.00
49321;DHT22;35817;44.498;0.166;2022-07-29T20:09:58;24.70;70.20
49321;DHT22;35817;44.498;0.166;2022-07-29T20:12:23;24.70;70.30
49321;DHT22;35817;44.498;0.166;2022-07-29T20:14:49;24.70;70.40
49321;DHT22;35817;44.498;0.166;2022-07-29T20:17:15;24.60;70.70
49321;DHT22;35817;44.498;0.166;2022-07-29T20:19:45;24.60;70.80
49321;DHT22;35817;44.498;0.166;2022-07-29T20:22:10;24.60;71.10
49321;DHT22;35817;44.498;0.166;2022-07-29T20:24:36;24.60;71.50
49321;DHT22;35817;44.498;0.166;2022-07-29T20:27:02;24.50;71.60
49321;DHT22;35817;44.498;0.166;2022-07-29T20:29:27;24.50;71.60
49321;DHT22;35817;44.498;0.166;2022-07-29T20:31:53;24.40;71.70
49321;DHT22;35817;44.498;0.166;2022-07-29T20:34:18;24.40;71.90
49321;DHT22;35817;44.498;0.166;2022-07-29T20:36:44;24.40;72.30
49321;DHT22;35817;44.498;0.166;2022-07-29T20:39:10;24.40;72.60
49321;DHT22;35817;44.498;0.166;2022-07-29T20:41:36;24.30;72.90
49321;DHT22;35817;44.498;0.166;2022-07-29T20:44:01;24.30;73.60
49321;DHT22;35817;44.498;0.166;2022-07-29T20:46:27;24.20;73.80
49321;DHT22;35817;44.498;0.166;2022-07-29T20:48:53;24.10;73.90
49321;DHT22;35817;44.498;0.166;2022-07-29T20:51:21;24.00;74.00
49321;DHT22;35817;44.498;0.166;2022-07-29T20:53:47;24.00;74.60
49321;DHT22;35817;44.498;0.166;2022-07-29T20:56:15;23.90;74.60
49321;DHT22;35817;44.498;0.166;2022-07-29T20:58:40;23.80;74.80
49321;DHT22;35817;44.498;0.166;2022-07-29T21:01:07;23.80;75.30
49321;DHT22;35817;44.498;0.166;2022-07-29T21:03:33;23.70;75.50
49321;DHT22;35817;44.498;0.166;2022-07-29T21:08:56;23.50;76.70
49321;DHT22;35817;44.498;0.166;2022-07-29T21:11:24;23.40;77.10
49321;DHT22;35817;44.498;0.166;2022-07-29T21:13:50;23.30;77.40
49321;DHT22;35817;44.498;0.166;2022-07-29T21:16:16;23.20;77.90
49321;DHT22;35817;44.498;0.166;2022-07-29T21:18:43;23.10;78.30
49321;DHT22;35817;44.498;0.166;2022-07-29T21:21:14;23.00;78.30
49321;DHT22;35817;44.498;0.166;2022-07-29T21:23:40;23.00;78.70
49321;DHT22;35817;44.498;0.166;2022-07-29T21:26:09;22.90;79.20
49321;DHT22;35817;44.498;0.166;2022-07-29T21:28:34;22.90;79.80
49321;DHT22;35817;44.498;0.166;2022-07-29T21:31:05;22.80;79.90
49321;DHT22;35817;44.498;0.166;2022-07-29T21:33:31;22.70;80.20
49321;DHT22;35817;44.498;0.166;2022-07-29T21:35:58;22.70;80.60